createdAt,value
2019-02-25T00:01:49.638Z,20.94
2019-02-25T00:06:57.765Z,20.90
2019-02-25T00:12:05.885Z,20.54
2019-02-25T00:17:14.590Z,21.36
2019-02-25T00:22:22.832Z,20.56
2019-02-25T00:27:31.533Z,20.81
2019-02-25T00:32:39.706Z,20.56
2019-02-25T00:37:48.046Z,20.55
2019-02-25T00:42:56.461Z,21.15
2019-02-25T00:48:04.745Z,21.21
2019-02-25T00:53:12.929Z,21.32
2019-02-25T00:58:21.154Z,22.06
2019-02-25T01:03:29.561Z,22.10
2019-02-25T01:08:37.709Z,22.12
2019-02-25T01:13:45.957Z,22.43
2019-02-25T01:18:54.275Z,21.60
2019-02-25T01:24:02.468Z,21.69
2019-02-25T01:29:11.781Z,21.97
2019-02-25T01:34:20.136Z,21.61
2019-02-25T01:39:28.521Z,21.95
2019-02-25T01:44:36.796Z,21.42
2019-02-25T01:49:44.974Z,21.05
2019-02-25T01:54:53.122Z,21.24
2019-02-25T02:00:01.254Z,20.54
2019-02-25T02:05:09.375Z,20.24
2019-02-25T02:10:17.643Z,20.49
2019-02-25T02:15:25.649Z,20.63
2019-02-25T02:20:33.956Z,20.04
2019-02-25T02:25:42.079Z,20.49
2019-02-25T02:30:50.888Z,20.79
2019-02-25T02:35:58.976Z,20.41
2019-02-25T02:41:07.169Z,20.35
2019-02-25T02:46:15.435Z,20.54
2019-02-25T02:51:23.652Z,20.15
2019-02-25T02:56:32.247Z,20.55
2019-02-25T03:01:42.071Z,20.67
2019-02-25T03:06:48.678Z,20.79
2019-02-25T03:11:56.865Z,20.05
2019-02-25T03:17:05.197Z,19.99
2019-02-25T03:22:13.483Z,20.03
2019-02-25T03:27:21.753Z,21.03
2019-02-25T03:32:30.173Z,20.54
2019-02-25T03:37:38.322Z,19.91
2019-02-25T03:42:46.569Z,20.54
2019-02-25T03:47:54.673Z,20.60
2019-02-25T03:53:03.162Z,20.29
2019-02-25T03:58:11.357Z,20.25
2019-02-25T04:03:19.678Z,20.11
2019-02-25T04:08:27.790Z,22.08
2019-02-25T04:13:36.102Z,20.34
2019-02-25T04:18:44.273Z,21.08
2019-02-25T04:23:52.469Z,21.01
2019-02-25T04:29:00.518Z,20.51
2019-02-25T04:34:08.662Z,20.88
2019-02-25T04:39:17.305Z,20.82
2019-02-25T04:44:26.738Z,20.10
2019-02-25T04:49:34.847Z,20.06
2019-02-25T04:54:43.135Z,18.71
2019-02-25T04:59:51.418Z,19.20
2019-02-25T05:04:59.641Z,18.64
2019-02-25T05:10:07.679Z,19.24
2019-02-25T05:15:16.706Z,18.88
2019-02-25T05:20:24.940Z,18.02
2019-02-25T05:25:33.248Z,18.83
2019-02-25T05:30:41.300Z,19.08
2019-02-25T05:35:49.504Z,19.49
2019-02-25T05:40:57.636Z,18.77
2019-02-25T05:46:05.881Z,19.23
2019-02-25T05:51:14.299Z,19.27
2019-02-25T05:56:22.901Z,19.15
2019-02-25T06:01:32.667Z,19.45
2019-02-25T06:06:40.852Z,19.35
2019-02-25T06:11:49.110Z,20.77
2019-02-25T06:16:57.386Z,20.76
2019-02-25T06:22:05.566Z,21.83
2019-02-25T06:27:13.945Z,21.19
2019-02-25T06:32:22.877Z,22.09
2019-02-25T06:37:31.312Z,21.64
2019-02-25T06:42:39.629Z,20.56
2019-02-25T06:47:48.165Z,21.76
2019-02-25T06:52:56.240Z,20.90
2019-02-25T06:58:04.587Z,20.92
2019-02-25T07:03:12.721Z,21.54
2019-02-25T07:08:21.133Z,20.70
2019-02-25T07:13:29.309Z,20.62
2019-02-25T07:18:37.805Z,20.55
2019-02-25T07:23:45.998Z,20.66
2019-02-25T07:28:54.585Z,20.01
2019-02-25T07:34:02.749Z,20.27
2019-02-25T07:39:11.521Z,20.05
2019-02-25T07:44:19.681Z,20.48
2019-02-25T07:49:28.013Z,20.09
2019-02-25T07:54:36.116Z,20.77
2019-02-25T07:59:44.453Z,20.25
2019-02-25T08:04:52.528Z,20.58
2019-02-25T08:10:01.107Z,21.18
2019-02-25T08:15:09.454Z,20.55
2019-02-25T08:20:18.110Z,20.43
2019-02-25T08:25:26.358Z,20.54
2019-02-25T08:30:36.697Z,20.04
2019-02-25T08:35:44.924Z,20.98
2019-02-25T08:40:53.399Z,21.16
2019-02-25T08:46:01.845Z,20.52
2019-02-25T08:51:10.818Z,20.91
2019-02-25T08:56:19.096Z,21.73
2019-02-25T09:01:27.682Z,21.52
2019-02-25T09:06:36.137Z,23.10
2019-02-25T09:11:44.386Z,21.42
2019-02-25T09:16:52.834Z,21.22
2019-02-25T09:22:01.497Z,21.55
2019-02-25T09:27:09.831Z,22.34
2019-02-25T09:32:19.060Z,22.94
2019-02-25T09:37:25.626Z,23.12
2019-02-25T09:42:34.191Z,24.19
2019-02-25T09:47:42.652Z,24.21
2019-02-25T09:52:51.142Z,24.14
2019-02-25T09:58:00.086Z,23.51
2019-02-25T10:03:08.890Z,25.13
2019-02-25T10:08:17.120Z,24.92
2019-02-25T10:13:26.079Z,25.79
2019-02-25T10:18:34.593Z,28.98
2019-02-25T10:23:42.920Z,27.55
2019-02-25T10:28:51.089Z,26.40
2019-02-25T10:33:59.437Z,25.06
2019-02-25T10:39:09.091Z,25.25
2019-02-25T10:44:15.843Z,24.76
2019-02-25T10:49:24.491Z,24.02
2019-02-25T10:54:31.881Z,23.27
2019-02-25T10:59:41.482Z,24.24
2019-02-25T11:04:49.251Z,23.43
2019-02-25T11:09:55.285Z,23.97
2019-02-25T11:15:05.278Z,23.98
2019-02-25T11:20:12.049Z,21.69
2019-02-25T11:25:21.598Z,23.08
2019-02-25T11:30:28.234Z,21.46
2019-02-25T11:35:37.062Z,20.35
2019-02-25T11:40:44.426Z,18.64
2019-02-25T11:45:52.785Z,18.93
2019-02-25T11:51:01.113Z,18.39
2019-02-25T11:56:09.290Z,17.23
2019-02-25T12:01:17.446Z,15.78
2019-02-25T12:06:25.882Z,15.40
2019-02-25T12:11:34.105Z,17.02
2019-02-25T12:16:42.330Z,18.05
2019-02-25T12:21:51.015Z,18.40
2019-02-25T12:26:59.443Z,17.84
2019-02-25T12:32:07.529Z,19.33
2019-02-25T12:37:16.150Z,16.77
2019-02-25T12:42:24.365Z,17.33
2019-02-25T12:47:32.972Z,18.50
2019-02-25T12:52:41.096Z,18.63
2019-02-25T12:57:49.526Z,17.92
2019-02-25T13:02:57.557Z,17.54
2019-02-25T13:08:05.878Z,16.40
2019-02-25T13:13:14.038Z,16.04
2019-02-25T13:18:22.338Z,16.74
2019-02-25T13:23:30.956Z,15.75
2019-02-25T13:28:39.282Z,17.21
2019-02-25T13:33:47.347Z,15.65
2019-02-25T13:38:55.652Z,15.82
2019-02-25T13:44:03.796Z,15.76
2019-02-25T13:49:12.574Z,14.73
2019-02-25T13:54:20.858Z,15.50
2019-02-25T13:59:29.524Z,17.16
2019-02-25T14:04:38.150Z,16.02
2019-02-25T14:09:46.684Z,16.50
2019-02-25T14:14:55.310Z,16.15
2019-02-25T14:20:03.584Z,16.28
2019-02-25T14:25:12.526Z,16.96
2019-02-25T14:30:20.188Z,16.47
2019-02-25T14:35:28.769Z,16.02
2019-02-25T14:40:39.733Z,15.63
2019-02-25T14:45:46.611Z,16.37
2019-02-25T14:50:53.558Z,16.27
2019-02-25T14:56:03.788Z,16.69
2019-02-25T15:01:09.381Z,17.57
2019-02-25T15:06:17.566Z,17.92
2019-02-25T15:11:26.518Z,17.32
2019-02-25T15:16:34.823Z,17.97
2019-02-25T15:21:45.085Z,17.49
2019-02-25T15:26:50.966Z,16.90
2019-02-25T15:32:01.741Z,17.24
2019-02-25T15:37:09.060Z,16.35
2019-02-25T15:42:15.111Z,16.92
2019-02-25T15:47:24.062Z,16.96
2019-02-25T15:52:39.748Z,16.70
2019-02-25T15:57:40.398Z,16.94
2019-02-25T16:02:48.765Z,17.83
2019-02-25T16:07:57.952Z,18.38
2019-02-25T16:13:09.134Z,18.56
2019-02-25T16:18:14.092Z,19.18
2019-02-25T16:23:20.753Z,19.74
2019-02-25T16:28:29.548Z,19.92
2019-02-25T16:33:37.121Z,20.25
2019-02-25T16:38:45.407Z,19.69
2019-02-25T16:43:55.842Z,20.18
2019-02-25T16:49:01.554Z,21.04
2019-02-25T16:54:11.688Z,20.49
2019-02-25T16:59:20.195Z,20.92
2019-02-25T17:04:27.992Z,21.32
2019-02-25T17:09:34.150Z,21.62
2019-02-25T17:14:41.672Z,22.24
2019-02-25T17:19:51.497Z,22.34
2019-02-25T17:24:58.125Z,22.35
2019-02-25T17:30:05.245Z,22.44
2019-02-25T17:35:13.585Z,23.26
2019-02-25T17:40:22.042Z,22.85
2019-02-25T17:45:32.448Z,22.19
2019-02-25T17:50:39.265Z,22.62
2019-02-25T17:55:46.444Z,23.00
2019-02-25T18:00:56.366Z,22.92
2019-02-25T18:05:56.881Z,22.96
2019-02-25T18:11:03.373Z,23.61
2019-02-25T18:16:12.175Z,24.37
2019-02-25T18:21:19.177Z,25.72
2019-02-25T18:26:28.554Z,25.99
2019-02-25T18:31:35.111Z,25.97
2019-02-25T18:36:45.159Z,27.47
2019-02-25T18:41:52.597Z,26.37
2019-02-25T18:46:59.917Z,26.39
2019-02-25T18:52:06.165Z,25.83
2019-02-25T18:57:14.441Z,25.19
